createdAt,value
2023-04-13T00:01:32.806Z,84.07
2023-04-13T00:04:03.364Z,83.12
2023-04-13T00:06:30.461Z,84.11
2023-04-13T00:08:58.651Z,84.49
2023-04-13T00:11:27.768Z,82.78
2023-04-13T00:13:55.253Z,84.07
2023-04-13T00:16:22.204Z,83.17
2023-04-13T00:18:50.202Z,84.27
2023-04-13T00:21:17.112Z,84.21
2023-04-13T00:23:44.636Z,84.12
2023-04-13T00:26:11.097Z,83.50
2023-04-13T00:28:37.928Z,84.24
2023-04-13T00:31:04.746Z,83.99
2023-04-13T00:33:31.509Z,84.67
2023-04-13T00:35:58.005Z,83.85
2023-04-13T00:38:27.160Z,84.47
2023-04-13T00:40:54.615Z,83.51
2023-04-13T00:43:21.520Z,84.18
2023-04-13T00:45:48.646Z,82.99
2023-04-13T00:48:15.881Z,83.88
2023-04-13T00:50:42.718Z,84.30
2023-04-13T00:53:13.150Z,84.66
2023-04-13T00:55:42.427Z,83.23
2023-04-13T00:58:09.173Z,83.66
2023-04-13T01:00:39.038Z,84.34
2023-04-13T01:03:05.986Z,83.83
2023-04-13T01:05:50.517Z,84.17
2023-04-13T01:08:20.878Z,83.09
2023-04-13T01:11:05.924Z,83.30
2023-04-13T01:13:48.971Z,83.02
2023-04-13T01:16:15.893Z,83.70
2023-04-13T01:18:45.159Z,81.96
2023-04-13T01:21:14.770Z,82.61
2023-04-13T01:24:22.415Z,81.47
2023-04-13T01:27:06.980Z,80.92
2023-04-13T01:29:36.237Z,81.96
2023-04-13T01:32:03.114Z,82.51
2023-04-13T01:34:30.037Z,81.87
2023-04-13T01:36:57.109Z,82.67
2023-04-13T01:39:25.581Z,82.96
2023-04-13T01:41:52.037Z,81.42
2023-04-13T01:44:18.581Z,80.71
2023-04-13T01:46:49.467Z,80.22
2023-04-13T01:49:19.768Z,81.22
2023-04-13T01:51:48.153Z,81.54
2023-04-13T01:54:25.636Z,80.86
2023-04-13T01:56:53.012Z,80.61
2023-04-13T01:59:20.118Z,78.90
2023-04-13T02:04:13.867Z,78.93
2023-04-13T02:06:42.235Z,80.13
2023-04-13T02:09:08.697Z,80.05
2023-04-13T02:11:36.305Z,80.00
2023-04-13T02:14:03.958Z,79.73
2023-04-13T02:16:30.467Z,80.94
2023-04-13T02:18:58.539Z,79.84
2023-04-13T02:21:25.717Z,80.56
2023-04-13T02:23:55.007Z,80.42
2023-04-13T02:26:21.499Z,79.96
2023-04-13T02:28:49.384Z,80.34
2023-04-13T02:31:16.753Z,80.05
2023-04-13T02:33:44.713Z,79.61
2023-04-13T02:36:11.635Z,79.26
2023-04-13T02:38:38.495Z,79.89
2023-04-13T02:41:06.314Z,80.03
2023-04-13T02:43:33.250Z,78.93
2023-04-13T02:45:59.886Z,79.31
2023-04-13T02:48:26.925Z,79.91
2023-04-13T02:50:54.300Z,79.57
2023-04-13T02:53:24.594Z,79.86
2023-04-13T02:55:52.664Z,79.47
2023-04-13T02:58:20.256Z,79.77
2023-04-13T03:00:48.537Z,80.11
2023-04-13T03:03:16.874Z,79.12
2023-04-13T03:05:43.528Z,80.15
2023-04-13T03:08:10.225Z,79.54
2023-04-13T03:10:37.474Z,79.73
2023-04-13T03:13:03.849Z,78.89
2023-04-13T03:15:30.815Z,79.29
2023-04-13T03:17:59.896Z,79.45
2023-04-13T03:20:28.954Z,78.21
2023-04-13T03:22:56.225Z,79.08
2023-04-13T03:25:22.673Z,78.98
2023-04-13T03:27:49.081Z,79.99
2023-04-13T03:30:15.542Z,79.02
2023-04-13T03:32:41.953Z,79.39
2023-04-13T03:35:08.753Z,79.61
2023-04-13T03:37:40.458Z,79.95
2023-04-13T03:40:10.466Z,80.14
2023-04-13T03:42:37.421Z,80.77
2023-04-13T03:45:05.003Z,79.93
2023-04-13T03:47:31.484Z,78.79
2023-04-13T03:49:58.025Z,79.56
2023-04-13T03:52:24.525Z,79.44
2023-04-13T03:54:51.202Z,79.37
2023-04-13T03:57:17.690Z,79.90
2023-04-13T03:59:44.140Z,79.88
2023-04-13T04:02:10.915Z,80.12
2023-04-13T04:04:37.455Z,80.07
2023-04-13T04:07:03.943Z,80.36
2023-04-13T04:09:30.352Z,79.93
2023-04-13T04:11:56.753Z,79.21
2023-04-13T04:14:23.673Z,79.40
2023-04-13T04:16:50.381Z,79.82
2023-04-13T04:19:17.026Z,79.86
2023-04-13T04:21:46.845Z,80.17
2023-04-13T04:24:31.374Z,80.22
2023-04-13T04:27:02.542Z,80.63
2023-04-13T04:29:34.986Z,80.01
2023-04-13T04:32:03.086Z,80.45
2023-04-13T04:34:30.145Z,79.45
2023-04-13T04:37:00.238Z,79.58
2023-04-13T04:39:32.957Z,80.35
2023-04-13T04:42:05.235Z,79.94
2023-04-13T04:44:31.756Z,80.55
2023-04-13T04:47:02.756Z,79.78
2023-04-13T04:49:29.465Z,79.81
2023-04-13T04:51:57.409Z,79.30
2023-04-13T04:54:24.193Z,79.63
2023-04-13T04:56:51.589Z,79.86
2023-04-13T04:59:19.497Z,79.51
2023-04-13T05:01:46.096Z,79.63
2023-04-13T05:04:12.642Z,79.89
2023-04-13T05:06:41.395Z,79.25
2023-04-13T05:09:08.923Z,79.84
2023-04-13T05:11:35.812Z,79.76
2023-04-13T05:14:02.384Z,79.71
2023-04-13T05:16:30.519Z,79.87
2023-04-13T05:18:57.416Z,79.80
2023-04-13T05:21:24.161Z,80.11
2023-04-13T05:23:50.933Z,80.49
2023-04-13T05:26:17.481Z,80.50
2023-04-13T05:28:43.887Z,79.85
2023-04-13T05:31:11.263Z,80.10
2023-04-13T05:33:38.112Z,80.13
2023-04-13T05:36:05.298Z,80.32
2023-04-13T05:38:31.854Z,79.89
2023-04-13T05:40:58.668Z,80.60
2023-04-13T05:43:25.146Z,80.96
2023-04-13T05:45:52.131Z,80.55
2023-04-13T05:48:18.897Z,80.99
2023-04-13T05:50:45.393Z,80.43
2023-04-13T05:53:11.930Z,81.29
2023-04-13T05:55:44.791Z,80.43
2023-04-13T05:58:12.844Z,80.92
2023-04-13T06:00:39.879Z,80.97
2023-04-13T06:03:07.371Z,81.67
2023-04-13T06:05:36.571Z,81.55
2023-04-13T06:08:03.314Z,82.37
2023-04-13T06:10:29.939Z,82.27
2023-04-13T06:12:56.461Z,82.93
2023-04-13T06:15:23.530Z,82.04
2023-04-13T06:17:53.334Z,82.20
2023-04-13T06:20:21.268Z,81.56
2023-04-13T06:22:47.991Z,81.90
2023-04-13T06:25:14.899Z,81.44
2023-04-13T06:27:43.387Z,81.43
2023-04-13T06:30:10.756Z,82.22
2023-04-13T06:32:37.490Z,81.38
2023-04-13T06:35:05.909Z,81.51
2023-04-13T06:37:34.980Z,80.73
2023-04-13T06:40:12.339Z,80.79
2023-04-13T06:42:40.325Z,79.87
2023-04-13T06:45:08.816Z,80.06
2023-04-13T06:47:36.217Z,80.49
2023-04-13T06:50:07.073Z,79.43
2023-04-13T06:52:34.006Z,79.44
2023-04-13T06:55:00.754Z,79.79
2023-04-13T06:57:27.843Z,79.95
2023-04-13T06:59:54.506Z,80.52
2023-04-13T07:02:21.496Z,78.92
2023-04-13T07:04:48.474Z,78.91
2023-04-13T07:07:15.050Z,77.69
2023-04-13T07:09:41.787Z,78.20
2023-04-13T07:12:08.312Z,78.51
2023-04-13T07:14:35.939Z,77.84
2023-04-13T07:17:02.965Z,79.21
2023-04-13T07:19:30.877Z,78.12
2023-04-13T07:21:59.864Z,77.54
2023-04-13T07:24:29.837Z,77.74
2023-04-13T07:26:57.539Z,78.03
2023-04-13T07:29:24.826Z,77.06
2023-04-13T07:31:51.988Z,78.20
2023-04-13T07:34:18.900Z,76.54
2023-04-13T07:36:45.856Z,76.86
2023-04-13T07:39:12.285Z,76.57
2023-04-13T07:41:38.778Z,76.38
2023-04-13T07:44:05.317Z,76.65
2023-04-13T07:46:33.481Z,76.40
2023-04-13T07:49:00.751Z,75.21
2023-04-13T07:51:27.602Z,74.88
2023-04-13T07:53:54.629Z,73.86
2023-04-13T07:56:21.663Z,73.81
2023-04-13T07:58:48.121Z,74.31
2023-04-13T08:01:14.599Z,73.67
2023-04-13T08:03:41.246Z,74.09
2023-04-13T08:06:08.714Z,73.59
2023-04-13T08:08:35.163Z,72.47
2023-04-13T08:11:01.986Z,72.89
2023-04-13T08:13:29.672Z,72.80
2023-04-13T08:15:57.505Z,72.70
2023-04-13T08:18:24.470Z,72.13
2023-04-13T08:20:50.898Z,71.38
2023-04-13T08:23:17.340Z,72.00
2023-04-13T08:25:44.595Z,72.02
2023-04-13T08:28:10.981Z,71.54
2023-04-13T08:30:37.856Z,70.20
2023-04-13T08:33:04.549Z,70.20
2023-04-13T08:35:31.337Z,70.86
2023-04-13T08:37:58.216Z,70.61
2023-04-13T08:40:24.960Z,70.87
2023-04-13T08:42:53.839Z,70.85
2023-04-13T08:45:20.974Z,70.86
2023-04-13T08:47:49.330Z,70.95
2023-04-13T08:50:16.840Z,69.42
2023-04-13T08:52:43.264Z,69.15
2023-04-13T08:55:09.665Z,70.08
2023-04-13T08:57:37.198Z,69.92
2023-04-13T09:00:09.211Z,70.05
2023-04-13T09:02:38.420Z,69.29
2023-04-13T09:05:15.726Z,68.14
2023-04-13T09:07:47.899Z,69.08
2023-04-13T09:10:16.392Z,68.55
2023-04-13T09:12:42.803Z,68.50
2023-04-13T09:15:13.511Z,67.65
2023-04-13T09:17:40.100Z,67.77
2023-04-13T09:20:24.248Z,66.77
2023-04-13T09:22:52.366Z,66.65
2023-04-13T09:25:24.568Z,67.46
2023-04-13T09:27:52.170Z,66.34
2023-04-13T09:30:23.102Z,66.47
2023-04-13T09:33:04.643Z,66.91
2023-04-13T09:35:32.053Z,67.13
2023-04-13T09:37:59.805Z,66.25
2023-04-13T09:40:30.125Z,65.37
2023-04-13T09:43:04.648Z,64.79
2023-04-13T09:45:41.888Z,64.73
2023-04-13T09:48:20.582Z,66.40
2023-04-13T09:51:02.070Z,65.24
2023-04-13T09:53:39.699Z,64.91
2023-04-13T09:56:06.326Z,64.23
2023-04-13T09:58:32.739Z,64.13
2023-04-13T10:01:00.279Z,64.77
2023-04-13T10:03:27.779Z,63.63
2023-04-13T10:06:00.132Z,63.79
2023-04-13T10:11:00.149Z,64.14
2023-04-13T10:13:36.710Z,63.39
2023-04-13T10:16:29.101Z,64.33
2023-04-13T10:19:07.783Z,62.49
2023-04-13T10:21:40.638Z,63.33
2023-04-13T10:24:12.211Z,63.79
2023-04-13T10:26:40.787Z,63.37
2023-04-13T10:29:09.086Z,63.06
2023-04-13T10:31:48.002Z,63.13
2023-04-13T10:34:32.465Z,61.75
2023-04-13T10:37:03.679Z,62.02
2023-04-13T10:39:32.313Z,61.44
2023-04-13T10:42:09.251Z,60.88
2023-04-13T10:44:45.315Z,60.71
2023-04-13T10:47:16.958Z,59.88
2023-04-13T10:49:44.759Z,61.47
2023-04-13T10:52:11.591Z,60.62
2023-04-13T10:54:39.604Z,61.56
2023-04-13T10:57:08.867Z,60.47
2023-04-13T10:59:57.914Z,60.51
2023-04-13T11:02:31.928Z,62.42
2023-04-13T11:04:59.669Z,61.85
2023-04-13T11:07:26.678Z,61.10
2023-04-13T11:12:29.060Z,61.46
2023-04-13T11:14:55.661Z,61.51
2023-04-13T11:17:22.381Z,61.43
2023-04-13T11:19:53.853Z,61.61
2023-04-13T11:22:27.645Z,60.85
2023-04-13T11:25:06.323Z,61.44
2023-04-13T11:27:32.747Z,62.48
2023-04-13T11:30:07.330Z,61.17
2023-04-13T11:32:34.317Z,61.22
2023-04-13T11:35:08.186Z,62.03
2023-04-13T11:37:43.034Z,61.18
2023-04-13T11:40:14.696Z,61.74
2023-04-13T11:42:42.791Z,60.95
2023-04-13T11:45:10.437Z,60.25
2023-04-13T11:47:37.375Z,60.10
2023-04-13T11:50:05.609Z,60.72
2023-04-13T11:52:33.612Z,61.70
2023-04-13T11:55:14.974Z,61.02
2023-04-13T11:57:49.368Z,62.19
2023-04-13T12:00:24.434Z,61.64
2023-04-13T12:03:02.025Z,62.55
2023-04-13T12:05:32.440Z,62.60
2023-04-13T12:08:00.697Z,62.59
2023-04-13T12:10:39.346Z,62.24
2023-04-13T12:15:58.149Z,63.04
2023-04-13T12:18:37.076Z,63.04
2023-04-13T12:21:05.717Z,62.27
2023-04-13T12:23:32.773Z,62.75
2023-04-13T12:26:31.877Z,61.16
2023-04-13T12:28:59.570Z,62.17
2023-04-13T12:31:33.017Z,61.83
2023-04-13T12:33:59.607Z,61.82
2023-04-13T12:36:28.514Z,62.04
2023-04-13T12:38:54.911Z,61.53
2023-04-13T12:41:22.728Z,61.92
2023-04-13T12:43:49.128Z,61.80
2023-04-13T12:46:15.712Z,60.54
2023-04-13T12:48:42.175Z,60.52
2023-04-13T12:51:08.940Z,60.96
2023-04-13T12:53:36.040Z,61.45
2023-04-13T12:56:02.501Z,60.13
2023-04-13T12:58:28.916Z,59.83
2023-04-13T13:00:55.689Z,60.32
2023-04-13T13:03:23.506Z,60.33
2023-04-13T13:05:50.039Z,60.73
2023-04-13T13:08:16.421Z,59.92
2023-04-13T13:10:43.110Z,59.98
2023-04-13T13:13:09.761Z,60.36
2023-04-13T13:15:36.733Z,60.18
2023-04-13T13:18:04.459Z,59.60
2023-04-13T13:20:31.132Z,58.82
2023-04-13T13:22:57.858Z,60.56
2023-04-13T13:25:24.594Z,61.06
2023-04-13T13:30:20.279Z,59.56
2023-04-13T13:32:46.886Z,59.64
2023-04-13T13:35:14.739Z,59.49
2023-04-13T13:37:41.279Z,59.12
2023-04-13T13:40:13.079Z,59.70
2023-04-13T13:42:50.704Z,60.82
2023-04-13T13:45:18.652Z,60.02
2023-04-13T13:47:48.650Z,58.64
2023-04-13T13:50:15.179Z,58.86
2023-04-13T13:52:48.747Z,59.49
2023-04-13T13:55:26.128Z,59.08
2023-04-13T13:57:52.535Z,59.05
2023-04-13T14:00:19.730Z,57.71
2023-04-13T14:02:47.177Z,57.93
2023-04-13T14:05:13.748Z,59.13
2023-04-13T14:07:42.011Z,58.84
2023-04-13T14:10:12.781Z,58.83
2023-04-13T14:12:44.751Z,57.88
2023-04-13T14:15:12.317Z,60.05
2023-04-13T14:17:39.612Z,59.33
2023-04-13T14:20:12.830Z,58.86
2023-04-13T14:22:41.032Z,57.34
2023-04-13T14:25:11.235Z,58.46
2023-04-13T14:27:38.674Z,57.99
2023-04-13T14:30:06.105Z,57.41
2023-04-13T14:32:32.773Z,57.82
2023-04-13T14:35:00.537Z,58.22
2023-04-13T14:37:27.996Z,57.54
2023-04-13T14:39:55.379Z,58.39
2023-04-13T14:42:24.396Z,58.43
2023-04-13T14:44:51.759Z,58.42
2023-04-13T14:47:19.505Z,58.49
2023-04-13T14:49:47.216Z,57.86
2023-04-13T14:52:14.254Z,57.20
2023-04-13T14:54:40.652Z,58.81
2023-04-13T14:57:07.036Z,58.00
2023-04-13T14:59:33.687Z,59.13
2023-04-13T15:02:00.877Z,59.02
2023-04-13T15:04:28.153Z,59.24
2023-04-13T15:06:54.729Z,60.29
2023-04-13T15:09:21.871Z,58.78
2023-04-13T15:11:49.163Z,58.27
2023-04-13T15:14:15.563Z,59.75
2023-04-13T15:16:41.942Z,60.09
2023-04-13T15:19:08.423Z,59.69
2023-04-13T15:21:35.641Z,59.40
2023-04-13T15:24:02.117Z,59.70
2023-04-13T15:26:29.784Z,59.03
2023-04-13T15:28:56.083Z,57.65
2023-04-13T15:31:22.657Z,57.98
2023-04-13T15:33:49.158Z,57.88
2023-04-13T15:36:16.424Z,58.04
2023-04-13T15:38:43.141Z,59.11
2023-04-13T15:41:11.338Z,59.50
2023-04-13T15:43:38.199Z,59.11
2023-04-13T15:46:04.957Z,59.56
2023-04-13T15:48:31.956Z,59.13
2023-04-13T15:51:01.683Z,58.84
2023-04-13T15:53:28.339Z,59.51
2023-04-13T15:55:54.999Z,59.99
2023-04-13T15:58:21.573Z,60.41
2023-04-13T16:00:57.390Z,60.33
2023-04-13T16:03:24.214Z,59.09
2023-04-13T16:05:50.988Z,60.29
2023-04-13T16:08:19.185Z,60.13
2023-04-13T16:10:45.727Z,59.27
2023-04-13T16:13:18.842Z,59.37
2023-04-13T16:15:58.773Z,58.79
2023-04-13T16:18:30.067Z,59.46
2023-04-13T16:21:03.439Z,59.59
2023-04-13T16:23:33.514Z,60.34
2023-04-13T16:26:03.014Z,60.39
2023-04-13T16:28:29.618Z,61.40
2023-04-13T16:30:56.326Z,61.96
2023-04-13T16:33:23.271Z,62.33
2023-04-13T16:35:49.623Z,63.56
2023-04-13T16:38:15.984Z,63.14
2023-04-13T16:40:42.420Z,63.80
2023-04-13T16:43:09.465Z,64.15
2023-04-13T16:45:36.850Z,62.98
2023-04-13T16:48:06.215Z,64.11
2023-04-13T16:50:33.116Z,63.21
2023-04-13T16:52:59.645Z,62.89
2023-04-13T16:55:28.170Z,64.32
2023-04-13T16:57:54.911Z,63.89
2023-04-13T17:00:21.730Z,64.69
2023-04-13T17:02:48.132Z,65.02
2023-04-13T17:05:14.759Z,64.43
2023-04-13T17:07:43.293Z,64.47
2023-04-13T17:10:12.328Z,64.80
2023-04-13T17:12:39.026Z,65.30
2023-04-13T17:15:06.059Z,64.48
2023-04-13T17:17:32.791Z,64.50
2023-04-13T17:20:02.512Z,65.92
2023-04-13T17:22:31.776Z,66.20
2023-04-13T17:24:58.934Z,65.77
2023-04-13T17:27:25.669Z,66.33
2023-04-13T17:29:52.025Z,66.84
2023-04-13T17:32:22.181Z,67.33
2023-04-13T17:34:50.581Z,68.16
2023-04-13T17:37:17.970Z,67.99
2023-04-13T17:39:59.944Z,68.02
2023-04-13T17:42:26.850Z,68.85
2023-04-13T17:44:53.184Z,68.54
2023-04-13T17:47:19.856Z,68.55
2023-04-13T17:49:46.331Z,68.16
2023-04-13T17:52:12.696Z,69.10
2023-04-13T17:54:40.415Z,69.97
2023-04-13T17:57:07.683Z,68.54
2023-04-13T17:59:34.641Z,69.97
2023-04-13T18:02:07.872Z,69.82
2023-04-13T18:04:34.618Z,70.95
2023-04-13T18:07:01.568Z,70.16
2023-04-13T18:09:28.127Z,71.08
2023-04-13T18:11:54.790Z,71.35
2023-04-13T18:14:24.509Z,71.01
2023-04-13T18:16:50.974Z,71.13
2023-04-13T18:19:17.508Z,71.76
2023-04-13T18:21:43.874Z,71.46
2023-04-13T18:24:10.732Z,73.06
2023-04-13T18:26:40.874Z,73.28
2023-04-13T18:29:08.100Z,74.14
2023-04-13T18:31:34.655Z,73.52
2023-04-13T18:34:01.687Z,73.53
2023-04-13T18:36:28.564Z,73.49
2023-04-13T18:38:54.993Z,73.86
2023-04-13T18:41:22.036Z,73.19
2023-04-13T18:43:48.399Z,73.40
2023-04-13T18:46:14.845Z,73.29
2023-04-13T18:48:41.232Z,74.38
2023-04-13T18:51:09.770Z,75.12
2023-04-13T18:53:36.368Z,74.27
2023-04-13T18:56:02.737Z,73.61
2023-04-13T18:58:29.125Z,74.59
2023-04-13T19:00:55.578Z,74.64
2023-04-13T19:03:22.490Z,75.17
2023-04-13T19:05:49.044Z,74.39
2023-04-13T19:08:15.554Z,75.01
2023-04-13T19:10:43.289Z,74.69
2023-04-13T19:13:09.709Z,75.68
2023-04-13T19:15:36.397Z,75.79
2023-04-13T19:18:04.305Z,75.32
2023-04-13T19:20:31.022Z,75.75
2023-04-13T19:22:57.432Z,75.84
2023-04-13T19:25:23.974Z,75.17
2023-04-13T19:27:50.371Z,75.89
2023-04-13T19:30:18.195Z,76.52
2023-04-13T19:32:46.583Z,75.76
2023-04-13T19:35:13.651Z,75.63
2023-04-13T19:37:40.441Z,76.69
2023-04-13T19:40:13.577Z,76.34
2023-04-13T19:42:41.561Z,75.97
2023-04-13T19:45:09.495Z,75.47
2023-04-13T19:47:39.805Z,76.56
2023-04-13T19:50:08.835Z,75.83
2023-04-13T19:52:35.462Z,76.13
2023-04-13T19:55:01.998Z,76.08
2023-04-13T19:57:28.852Z,75.63
2023-04-13T19:59:55.285Z,75.96
2023-04-13T20:02:21.902Z,76.53
2023-04-13T20:04:52.021Z,76.93
2023-04-13T20:07:18.415Z,75.98
2023-04-13T20:09:45.307Z,76.93
2023-04-13T20:12:12.295Z,76.31
2023-04-13T20:14:41.663Z,77.19
2023-04-13T20:17:08.884Z,77.35
2023-04-13T20:19:36.334Z,77.81
2023-04-13T20:22:04.186Z,77.95
2023-04-13T20:24:31.275Z,78.18
2023-04-13T20:26:58.042Z,78.47
2023-04-13T20:29:26.742Z,77.81
2023-04-13T20:31:53.688Z,77.79
2023-04-13T20:34:20.532Z,78.49
2023-04-13T20:36:47.456Z,79.47
2023-04-13T20:39:14.016Z,79.16
2023-04-13T20:41:40.384Z,78.39
2023-04-13T20:44:09.813Z,78.79
2023-04-13T20:46:37.569Z,77.88
2023-04-13T20:49:05.128Z,78.91
2023-04-13T20:51:33.503Z,77.73
2023-04-13T20:54:02.993Z,78.34
2023-04-13T20:56:29.939Z,77.51
2023-04-13T20:58:57.742Z,77.91
2023-04-13T21:01:28.023Z,76.73
2023-04-13T21:03:54.538Z,77.94
2023-04-13T21:06:22.594Z,77.55
2023-04-13T21:08:49.221Z,77.34
2023-04-13T21:11:15.630Z,75.89
2023-04-13T21:13:42.182Z,75.83
2023-04-13T21:16:09.139Z,75.90
2023-04-13T21:18:36.605Z,75.79
2023-04-13T21:21:05.284Z,75.05
2023-04-13T21:23:31.663Z,75.78
2023-04-13T21:25:58.172Z,75.73
2023-04-13T21:28:24.502Z,75.83
2023-04-13T21:30:50.867Z,75.46
2023-04-13T21:33:17.295Z,76.04
2023-04-13T21:35:43.665Z,76.05
2023-04-13T21:38:10.354Z,75.68
2023-04-13T21:40:36.694Z,76.40
2023-04-13T21:43:03.297Z,75.81
2023-04-13T21:45:29.988Z,75.12
2023-04-13T21:47:56.427Z,75.51
2023-04-13T21:50:23.028Z,75.32
2023-04-13T21:52:49.463Z,75.10
2023-04-13T21:55:19.085Z,75.77
2023-04-13T21:57:46.266Z,76.63
2023-04-13T22:00:14.980Z,77.07
2023-04-13T22:02:42.094Z,77.29
2023-04-13T22:05:11.126Z,76.76
2023-04-13T22:07:42.808Z,76.60
2023-04-13T22:10:10.581Z,76.86
2023-04-13T22:12:37.016Z,76.83
2023-04-13T22:15:03.732Z,76.70
2023-04-13T22:17:30.197Z,76.65
2023-04-13T22:19:56.616Z,76.64
2023-04-13T22:22:23.109Z,76.36
2023-04-13T22:24:52.160Z,76.37
2023-04-13T22:27:18.723Z,76.19
2023-04-13T22:29:45.415Z,76.21
2023-04-13T22:32:11.734Z,75.42
2023-04-13T22:34:38.035Z,76.10
2023-04-13T22:37:04.993Z,76.75
2023-04-13T22:39:31.602Z,76.51
2023-04-13T22:41:58.929Z,76.28
2023-04-13T22:44:25.346Z,77.13
2023-04-13T22:46:53.802Z,76.48
2023-04-13T22:49:20.169Z,76.22
2023-04-13T22:51:46.581Z,76.81
2023-04-13T22:54:12.972Z,76.52
2023-04-13T22:56:39.303Z,77.08
2023-04-13T22:59:05.689Z,75.78
2023-04-13T23:01:32.093Z,76.75
2023-04-13T23:03:58.666Z,76.58
2023-04-13T23:06:25.327Z,76.63
2023-04-13T23:08:51.688Z,77.09
2023-04-13T23:11:18.019Z,76.69
2023-04-13T23:13:46.690Z,76.86
2023-04-13T23:16:13.055Z,76.53
2023-04-13T23:18:39.404Z,76.26
2023-04-13T23:21:10.481Z,76.27
2023-04-13T23:23:37.476Z,77.13
2023-04-13T23:26:04.129Z,76.57
2023-04-13T23:28:30.594Z,77.96
2023-04-13T23:31:06.954Z,77.64
2023-04-13T23:33:34.336Z,77.66
2023-04-13T23:36:01.559Z,77.20
2023-04-13T23:38:28.508Z,77.35
2023-04-13T23:40:55.024Z,77.86
2023-04-13T23:43:21.916Z,78.14
2023-04-13T23:45:52.109Z,78.25
2023-04-13T23:48:22.839Z,77.66
2023-04-13T23:50:49.351Z,76.85
2023-04-13T23:53:16.441Z,77.77
2023-04-13T23:55:42.881Z,77.89
2023-04-13T23:58:09.298Z,76.42
